Time;durP1;ratioP1;P1;durP2;ratioP2;P2;SDS_P1;SDS_P2;PMS_P1;PMS_P2;Temp;Humidity;BMP_temperature;BMP_pressure;BME280_temperature;BME280_humidity;BME280_pressure;Samples;Min_cycle;Max_cycle;Signal;HPM_P1;HPM_P2
2024/04/01 00:00:17;;;;;;;1999.90;999.90;;;;;;;8.63;100.00;99310.03;10372352;28;20061;-65
2024/04/01 00:05:18;;;;;;;1999.90;999.90;;;;;;;8.68;100.00;99305.31;10371137;28;20046;-65
2024/04/01 00:10:21;;;;;;;1999.90;999.90;;;;;;;8.64;100.00;99303.88;10355931;28;20050;-65
2024/04/01 00:15:22;;;;;;;1999.90;999.90;;;;;;;8.65;100.00;99315.13;10371174;28;20386;-65
2024/04/01 00:20:24;;;;;;;1999.90;999.90;;;;;;;8.58;100.00;99309.53;10371398;28;20456;-65
2024/04/01 00:25:25;;;;;;;1999.90;999.90;;;;;;;8.48;100.00;99298.09;10371614;28;20045;-65
2024/04/01 00:30:28;;;;;;;1999.90;999.90;;;;;;;8.55;100.00;99294.09;10376198;28;20061;-65
2024/04/01 00:35:29;;;;;;;1999.90;999.90;;;;;;;8.67;100.00;99274.91;10362613;28;20053;-65
2024/04/01 00:40:31;;;;;;;1999.90;999.90;;;;;;;8.68;100.00;99279.22;10378111;28;20062;-65
2024/04/01 00:45:32;;;;;;;1999.90;999.90;;;;;;;8.71;100.00;99291.22;10378264;28;20050;-65
2024/04/01 00:50:36;;;;;;;1999.90;999.90;;;;;;;8.79;100.00;99275.78;10361719;28;20061;-65
2024/04/01 00:55:39;;;;;;;1999.90;999.90;;;;;;;8.82;100.00;99266.91;10361834;28;20057;-65
2024/04/01 01:00:41;;;;;;;1999.90;999.90;;;;;;;8.58;100.00;99248.72;10361477;28;20054;-65
2024/04/01 01:05:44;;;;;;;1999.90;999.90;;;;;;;8.83;100.00;99238.09;10377275;28;20050;-65
2024/04/01 01:10:45;;;;;;;1999.90;999.90;;;;;;;8.52;100.00;99232.56;10360710;28;20058;-65
2024/04/01 01:15:46;;;;;;;1999.90;999.90;;;;;;;8.80;100.00;99233.09;10361061;28;20057;-65
2024/04/01 01:20:48;;;;;;;1999.90;999.90;;;;;;;8.93;100.00;99236.47;10376554;28;20054;-65
2024/04/01 01:25:49;;;;;;;1999.90;999.90;;;;;;;8.79;100.00;99246.25;10376645;28;20108;-65
2024/04/01 01:30:50;;;;;;;1999.90;999.90;;;;;;;8.73;100.00;99240.56;10360294;28;20066;-65
2024/04/01 01:35:52;;;;;;;1999.90;999.90;;;;;;;8.90;100.00;99254.13;10376447;28;20120;-65
2024/04/01 01:40:54;;;;;;;1999.90;999.90;;;;;;;8.95;100.00;99251.19;10359014;28;20069;-65
2024/04/01 01:45:55;;;;;;;1999.90;999.90;;;;;;;9.13;100.00;99256.78;10375796;28;20470;-65
2024/04/01 01:50:56;;;;;;;1999.90;999.90;;;;;;;8.99;100.00;99256.03;10374805;28;20410;-65
2024/04/01 01:55:58;;;;;;;1999.90;999.90;;;;;;;8.95;100.00;99257.22;10374626;28;20061;-65
2024/04/01 02:00:59;;;;;;;1999.90;999.90;;;;;;;9.01;100.00;99264.59;10374544;28;20489;-65
2024/04/01 02:06:00;;;;;;;1999.90;999.90;;;;;;;9.06;100.00;99261.63;10375136;28;20057;-65
2024/04/01 02:11:02;;;;;;;1999.90;999.90;;;;;;;9.11;100.00;99269.94;10375089;28;20046;-65
2024/04/01 02:16:06;;;;;;;1999.90;999.90;;;;;;;9.10;100.00;99276.13;10374137;28;20081;-65
2024/04/01 02:21:08;;;;;;;1999.90;999.90;;;;;;;8.99;100.00;99274.31;10373969;28;20058;-65
2024/04/01 02:26:09;;;;;;;1999.90;999.90;;;;;;;9.18;100.00;99271.16;10374057;28;20054;-65
2024/04/01 02:31:11;;;;;;;1999.90;999.90;;;;;;;9.21;100.00;99263.09;10374253;28;20053;-65
2024/04/01 02:36:12;;;;;;;1999.90;999.90;;;;;;;9.17;100.00;99263.44;10374050;28;20057;-65
2024/04/01 02:41:14;;;;;;;1999.90;999.90;;;;;;;8.82;100.00;99256.47;10373337;28;20058;-65
2024/04/01 02:46:15;;;;;;;1999.90;999.90;;;;;;;8.82;100.00;99261.69;10356981;28;20409;-65
2024/04/01 02:51:16;;;;;;;1999.90;999.90;;;;;;;8.80;100.00;99256.59;10372683;28;20125;-65
2024/04/01 02:56:18;;;;;;;1999.90;999.90;;;;;;;8.82;100.00;99253.88;10357437;28;20064;-65
2024/04/01 03:01:19;;;;;;;1999.90;999.90;;;;;;;8.76;100.00;99257.78;10373148;28;20057;-65
2024/04/01 03:06:21;;;;;;;1999.90;999.90;;;;;;;8.74;100.00;99254.44;10356566;28;20096;-65
2024/04/01 03:11:22;;;;;;;1999.90;999.90;;;;;;;8.52;100.00;99245.59;10372646;28;20092;-65
2024/04/01 03:16:23;;;;;;;1999.90;999.90;;;;;;;8.38;100.00;99246.56;10357021;28;20054;-65
2024/04/01 03:21:25;;;;;;;1999.90;999.90;;;;;;;8.54;100.00;99245.50;10373113;28;20058;-65
2024/04/01 03:26:26;;;;;;;1999.90;999.90;;;;;;;8.31;100.00;99247.13;10372466;28;20049;-65
2024/04/01 03:31:28;;;;;;;1999.90;999.90;;;;;;;8.29;100.00;99262.88;10373102;28;20061;-65
2024/04/01 03:36:29;;;;;;;1999.90;999.90;;;;;;;8.41;100.00;99248.13;10372910;28;20046;-65
2024/04/01 03:41:31;;;;;;;1999.90;999.90;;;;;;;8.23;100.00;99234.66;10372062;28;20425;-65
2024/04/01 03:46:33;;;;;;;1999.90;999.90;;;;;;;8.22;100.00;99229.53;10371961;28;20045;-65
2024/04/01 03:51:34;;;;;;;1999.90;999.90;;;;;;;8.26;100.00;99229.22;10372051;28;20057;-65
2024/04/01 03:56:35;;;;;;;1999.90;999.90;;;;;;;8.40;100.00;99236.03;10417202;23;20061;-65
2024/04/01 04:01:37;;;;;;;1999.90;999.90;;;;;;;8.30;100.00;99235.03;10412689;28;20068;-65
2024/04/01 04:06:40;;;;;;;1999.90;999.90;;;;;;;8.31;100.00;99236.72;10402908;28;20053;-65
2024/04/01 04:11:43;;;;;;;1999.90;999.90;;;;;;;8.26;100.00;99237.03;10403887;28;20558;-65
2024/04/01 04:16:48;;;;;;;1999.90;999.90;;;;;;;8.33;100.00;99230.41;10420014;28;20404;-65
2024/04/01 04:21:50;;;;;;;1999.90;999.90;;;;;;;8.25;100.00;99234.53;10420648;28;20084;-65
2024/04/01 04:26:52;;;;;;;1999.90;999.90;;;;;;;8.24;100.00;99249.34;10419861;28;20058;-65
2024/04/01 04:31:54;;;;;;;1999.90;999.90;;;;;;;8.36;100.00;99250.25;10420098;28;20057;-65
2024/04/01 04:36:55;;;;;;;1999.90;999.90;;;;;;;8.36;100.00;99258.88;10402668;28;20076;-65
2024/04/01 04:41:57;;;;;;;1999.90;999.90;;;;;;;8.38;100.00;99257.00;10419645;28;20057;-65
2024/04/01 04:46:58;;;;;;;1999.90;999.90;;;;;;;8.50;100.00;99259.69;10418349;28;20489;-65
2024/04/01 04:52:00;;;;;;;1999.90;999.90;;;;;;;8.53;100.00;99257.69;10418135;28;20534;-65
2024/04/01 04:57:01;;;;;;;1999.90;999.90;;;;;;;8.35;100.00;99248.56;10418534;28;20559;-65
2024/04/01 05:02:08;;;;;;;1999.90;999.90;;;;;;;8.62;100.00;99248.34;10418784;28;20060;-65
2024/04/01 05:07:10;;;;;;;1999.90;999.90;;;;;;;8.63;100.00;99255.25;10401893;28;20049;-65
2024/04/01 05:12:11;;;;;;;1999.90;999.90;;;;;;;8.79;100.00;99252.31;10417566;28;20515;-65
2024/04/01 05:17:13;;;;;;;1999.90;999.90;;;;;;;8.93;100.00;99252.13;10417154;28;20050;-65
2024/04/01 05:22:15;;;;;;;1999.90;999.90;;;;;;;9.01;100.00;99248.94;10418023;28;20053;-65
2024/04/01 05:27:16;;;;;;;1999.90;999.90;;;;;;;9.13;100.00;99255.00;10417514;28;20107;-65
2024/04/01 05:32:17;;;;;;;1999.90;999.90;;;;;;;9.08;100.00;99244.09;10417710;28;20058;-65
2024/04/01 05:37:20;;;;;;;1999.90;999.90;;;;;;;9.37;100.00;99249.69;10416557;28;20119;-65
2024/04/01 05:42:21;;;;;;;1999.90;999.90;;;;;;;9.36;100.00;99236.75;10416926;28;20058;-65
2024/04/01 05:47:23;;;;;;;1999.90;999.90;;;;;;;9.34;100.00;99246.47;10399564;28;20045;-65
2024/04/01 05:52:24;;;;;;;1999.90;999.90;;;;;;;9.40;100.00;99243.41;10416650;28;20064;-65
2024/04/01 05:57:25;;;;;;;1999.90;999.90;;;;;;;9.44;100.00;99245.63;10416095;28;20503;-65
2024/04/01 06:02:27;;;;;;;1999.90;999.90;;;;;;;9.53;100.00;99243.25;10415852;28;20053;-65
2024/04/01 06:07:29;;;;;;;1999.90;999.90;;;;;;;9.51;100.00;99245.16;10415452;28;20108;-65
2024/04/01 06:12:30;;;;;;;1999.90;999.90;;;;;;;9.47;100.00;99249.81;10398951;28;20049;-65
2024/04/01 06:17:32;;;;;;;1999.90;999.90;;;;;;;9.60;100.00;99250.53;10415883;28;20068;-65
2024/04/01 06:22:33;;;;;;;1999.90;999.90;;;;;;;9.65;100.00;99252.78;10399092;28;20061;-65
2024/04/01 06:27:35;;;;;;;1999.90;999.90;;;;;;;9.61;100.00;99256.56;10397872;28;20064;-65
2024/04/01 06:32:36;;;;;;;1999.90;999.90;;;;;;;9.74;100.00;99256.44;10414883;28;20416;-65
2024/04/01 06:37:37;;;;;;;1999.90;999.90;;;;;;;9.69;100.00;99269.03;10398812;28;20053;-65
2024/04/01 06:42:39;;;;;;;1999.90;999.90;;;;;;;9.57;100.00;99276.88;10414803;28;20107;-65
2024/04/01 06:47:40;;;;;;;1999.90;999.90;;;;;;;9.48;100.00;99288.03;10397917;28;20049;-65
2024/04/01 06:52:42;;;;;;;1999.90;999.90;;;;;;;9.61;100.00;99295.75;10414041;28;20060;-65
2024/04/01 06:57:44;;;;;;;1999.90;999.90;;;;;;;9.65;100.00;99305.03;10414490;28;20057;-65
2024/04/01 07:02:45;;;;;;;1999.90;999.90;;;;;;;9.62;100.00;99305.28;10414012;28;20057;-65
2024/04/01 07:07:46;;;;;;;1999.90;999.90;;;;;;;9.81;100.00;99308.09;10393882;28;20493;-64
2024/04/01 07:12:48;;;;;;;1999.90;999.90;;;;;;;9.61;100.00;99314.06;10390931;28;20489;-64
2024/04/01 07:17:51;;;;;;;1999.90;999.90;;;;;;;9.61;100.00;99316.66;10373027;28;20049;-66
2024/04/01 07:22:52;;;;;;;1999.90;999.90;;;;;;;9.63;100.00;99330.44;10371901;28;20069;-66
2024/04/01 07:27:54;;;;;;;1999.90;999.90;;;;;;;9.74;100.00;99330.44;10368257;28;20065;-66
2024/04/01 07:32:55;;;;;;;1999.90;999.90;;;;;;;9.81;100.00;99336.84;10376729;28;20053;-66
2024/04/01 07:37:56;;;;;;;1999.90;999.90;;;;;;;9.72;100.00;99334.97;10380770;28;20477;-65
2024/04/01 07:42:58;;;;;;;1999.90;999.90;;;;;;;9.85;100.00;99342.69;10385379;28;20057;-65
2024/04/01 07:47:59;;;;;;;1999.90;999.90;;;;;;;9.69;100.00;99353.50;10397236;28;20057;-65
2024/04/01 07:53:01;;;;;;;1999.90;999.90;;;;;;;9.72;100.00;99352.44;10387905;28;20057;-66
2024/04/01 07:58:03;;;;;;;1999.90;999.90;;;;;;;9.70;100.00;99359.56;10393401;28;20100;-65
2024/04/01 08:03:04;;;;;;;1999.90;999.90;;;;;;;9.82;100.00;99367.28;10362245;28;20057;-66
2024/04/01 08:08:06;;;;;;;1999.90;999.90;;;;;;;9.96;100.00;99373.25;10389927;28;20056;-65
2024/04/01 08:13:07;;;;;;;1999.90;999.90;;;;;;;9.91;100.00;99376.19;10420452;28;20057;-65
2024/04/01 08:18:09;;;;;;;1999.90;999.90;;;;;;;9.91;100.00;99386.66;10403717;28;20057;-66
2024/04/01 08:23:10;;;;;;;1999.90;999.90;;;;;;;10.03;100.00;99400.56;10420420;28;20049;-65
2024/04/01 08:28:12;;;;;;;1999.90;999.90;;;;;;;10.38;100.00;99407.47;10419479;28;20045;-65
2024/04/01 08:33:13;;;;;;;1999.90;999.90;;;;;;;9.89;100.00;99417.31;10419306;28;20382;-65
2024/04/01 08:38:14;;;;;;;1999.90;999.90;;;;;;;9.93;100.00;99421.34;10419451;28;20053;-65
2024/04/01 08:43:24;;;;;;;1999.90;999.90;;;;;;;10.04;100.00;99431.81;10418741;28;20484;-65
2024/04/01 08:48:27;;;;;;;1999.90;999.90;;;;;;;9.93;100.00;99444.88;10401609;28;20480;-65
2024/04/01 08:53:53;;;;;;;1999.90;999.90;;;;;;;9.89;100.00;99453.91;10418778;28;20057;-65
2024/04/01 08:58:56;;;;;;;1999.90;999.90;;;;;;;9.98;100.00;99455.00;10401692;28;20468;-65
2024/04/01 09:03:57;;;;;;;1999.90;999.90;;;;;;;10.08;100.00;99473.44;10418544;28;20061;-65
2024/04/01 09:08:59;;;;;;;1999.90;999.90;;;;;;;9.81;100.00;99480.63;10418036;28;20057;-65
2024/04/01 09:14:00;;;;;;;1999.90;999.90;;;;;;;9.95;100.00;99497.91;10418915;28;20109;-65
2024/04/01 09:19:07;;;;;;;1999.90;999.90;;;;;;;9.80;100.00;99475.50;10418276;28;20049;-65
2024/04/01 09:24:09;;;;;;;1999.90;999.90;;;;;;;9.88;100.00;99486.22;10417620;28;20061;-65
2024/04/01 09:29:11;;;;;;;1999.90;999.90;;;;;;;10.27;100.00;99484.16;10400593;28;20049;-65
2024/04/01 09:34:12;;;;;;;1999.90;999.90;;;;;;;10.12;100.00;99469.63;10416894;28;20488;-65
2024/04/01 09:39:14;;;;;;;1999.90;999.90;;;;;;;10.55;100.00;99471.56;10400063;28;20515;-65
2024/04/01 09:44:17;;;;;;;1999.90;999.90;;;;;;;10.52;100.00;99485.75;10416313;28;20053;-65
2024/04/01 09:49:19;;;;;;;1999.90;999.90;;;;;;;10.71;100.00;99500.84;10416500;28;20045;-65
2024/04/01 09:54:21;;;;;;;1999.90;999.90;;;;;;;10.28;100.00;99516.38;10399658;28;20053;-65
2024/04/01 09:59:50;;;;;;;1999.90;999.90;;;;;;;10.67;100.00;99512.47;10416786;28;20056;-65
2024/04/01 10:05:06;;;;;;;1999.90;999.90;;;;;;;11.07;100.00;99504.09;10399784;28;20064;-65
2024/04/01 10:10:14;;;;;;;1999.90;999.90;;;;;;;11.48;100.00;99493.81;10415133;28;20053;-65
2024/04/01 10:15:47;;;;;;;1999.90;999.90;;;;;;;11.69;100.00;99496.50;10415754;28;20098;-65
2024/04/01 10:21:11;;;;;;;1999.90;999.90;;;;;;;11.60;100.00;99503.31;10399142;28;20065;-65
2024/04/01 10:26:48;;;;;;;1999.90;999.90;;;;;;;11.39;100.00;99505.91;10399103;28;20041;-65
2024/04/01 10:31:58;;;;;;;1999.90;999.90;;;;;;;11.15;100.00;99512.16;10398502;28;20385;-65
2024/04/01 10:37:37;;;;;;;1999.90;999.90;;;;;;;11.37;100.00;99514.88;10398498;28;20440;-65
2024/04/01 10:43:03;;;;;;;1999.90;999.90;;;;;;;11.75;100.00;99503.84;10414836;28;20049;-65
2024/04/01 10:48:27;;;;;;;1999.90;999.90;;;;;;;11.54;100.00;99501.19;10397548;28;20045;-65
2024/04/01 10:53:50;;;;;;;1999.90;999.90;;;;;;;11.24;100.00;99497.50;10414239;28;20092;-65
2024/04/01 10:59:28;;;;;;;1999.90;999.90;;;;;;;11.63;100.00;99499.59;10413478;28;20054;-66
2024/04/01 11:04:48;;;;;;;1999.90;999.90;;;;;;;11.65;100.00;99516.88;10413140;28;20056;-66
2024/04/01 11:10:23;;;;;;;1999.90;999.90;;;;;;;11.10;100.00;99532.66;10413497;28;20382;-66
2024/04/01 11:15:26;;;;;;;1999.90;999.90;;;;;;;11.18;100.00;99544.31;10396744;28;20408;-65
2024/04/01 11:21:08;;;;;;;1999.90;999.90;;;;;;;11.36;100.00;99560.34;10397676;28;20049;-65
2024/04/01 11:26:21;;;;;;;;;;;;;;;11.03;100.00;99565.53;10361106;28;20045;-65
2024/04/01 11:31:25;;;;;;;;;;;;;;;11.50;100.00;99560.09;10397886;28;19925;-66
2024/04/01 11:36:51;;;;;;;1999.90;999.90;;;;;;;11.37;100.00;99567.28;10396904;28;19921;-66
2024/04/01 11:41:55;;;;;;;1999.90;999.90;;;;;;;11.97;100.00;99555.38;10396440;28;20053;-66
2024/04/01 11:46:57;;;;;;;1999.90;999.90;;;;;;;12.15;100.00;99574.00;10413219;28;20053;-65
2024/04/01 11:51:59;;;;;;;1999.90;999.90;;;;;;;11.97;100.00;99573.75;10397045;28;20064;-65
2024/04/01 11:57:00;;;;;;;1999.90;999.90;;;;;;;12.12;100.00;99579.50;10412624;28;20100;-65
2024/04/01 12:02:11;;;;;;;1999.90;999.90;;;;;;;12.25;100.00;99589.81;10396247;28;20049;-66
2024/04/01 12:07:15;;;;;;;1999.90;999.90;;;;;;;13.18;97.74;99596.75;10412407;28;20041;-65
2024/04/01 12:12:17;;;;;;;1999.90;999.90;;;;;;;12.69;91.75;99597.50;10396265;28;20064;-65
2024/04/01 12:17:21;;;;;;;1999.90;999.90;;;;;;;13.22;91.73;99597.31;10396229;28;20168;-65
2024/04/01 12:22:24;;;;;;;1999.90;999.90;;;;;;;13.32;88.91;99602.63;10412277;28;20119;-65
2024/04/01 12:27:30;;;;;;;1999.90;999.90;;;;;;;13.23;84.86;99598.13;10401368;28;20060;-65
2024/04/01 12:32:43;;;;;;;1999.90;999.90;;;;;;;13.91;86.36;99585.91;10420073;28;20053;-65
2024/04/01 12:37:47;;;;;;;1999.90;999.90;;;;;;;13.49;80.61;99601.13;10419579;28;20042;-65
2024/04/01 12:42:49;;;;;;;1999.90;999.90;;;;;;;14.62;79.68;99603.13;10419026;28;20378;-65
2024/04/01 12:47:50;;;;;;;1999.90;999.90;;;;;;;14.09;76.19;99608.91;10402799;28;20045;-65
2024/04/01 12:53:02;;;;;;;1999.90;999.90;;;;;;;14.00;76.77;99620.25;10402352;28;20068;-65
2024/04/01 12:58:28;;;;;;;1999.90;999.90;;;;;;;14.43;75.16;99619.81;10402740;28;20046;-65
2024/04/01 13:04:01;;;;;;;1999.90;999.90;;;;;;;14.38;74.27;99631.75;10402314;28;20104;-66
2024/04/01 13:09:12;;;;;;;1999.90;999.90;;;;;;;13.92;73.02;99637.56;10385046;28;20515;-65
2024/04/01 13:14:17;;;;;;;1999.90;999.90;;;;;;;15.08;73.56;99632.25;10401439;28;20405;-66
2024/04/01 13:19:38;;;;;;;1999.90;999.90;;;;;;;15.77;72.65;99641.47;10401992;28;20053;-66
2024/04/01 13:24:45;;;;;;;1999.90;999.90;;;;;;;15.55;72.23;99644.47;10401020;28;20484;-66
2024/04/01 13:29:59;;;;;;;1999.90;999.90;;;;;;;13.42;70.24;99649.97;10417117;28;20412;-66
2024/04/01 13:35:23;;;;;;;1999.90;999.90;;;;;;;13.83;71.69;99663.88;10400649;28;20088;-66
2024/04/01 13:40:41;;;;;;;1999.90;999.90;;;;;;;14.25;71.03;99671.50;10417468;28;20046;-66
2024/04/01 13:46:01;;;;;;;1999.90;999.90;;;;;;;13.47;70.16;99671.44;10416666;28;20481;-66
2024/04/01 13:51:28;;;;;;;1999.90;999.90;;;;;;;13.08;71.47;99674.72;10416418;28;20049;-66
2024/04/01 13:57:03;;;;;;;1999.90;999.90;;;;;;;13.95;70.62;99662.78;10367033;28;20052;-66
2024/04/01 14:02:17;;;;;;;1999.90;999.90;;;;;;;13.69;70.57;99670.38;10415611;28;20489;-66
2024/04/01 14:07:59;;;;;;;1999.90;999.90;;;;;;;13.49;69.66;99670.31;10399398;28;20060;-66
2024/04/01 14:13:08;;;;;;;;;;;;;;;13.69;72.42;99686.97;10307439;28;20393;-66
2024/04/01 14:18:11;;;;;;;1999.90;999.90;;;;;;;13.25;71.84;99702.16;10382621;28;20016;-66
2024/04/01 14:23:12;;;;;;;1999.90;999.90;;;;;;;13.72;72.49;99689.34;10415165;28;20386;-66
2024/04/01 14:28:18;;;;;;;1999.90;999.90;;;;;;;13.75;72.92;99696.09;10415231;28;20045;-66
2024/04/01 14:33:20;;;;;;;1999.90;999.90;;;;;;;13.23;71.15;99693.59;10398812;28;20049;-66
2024/04/01 14:38:21;;;;;;;1999.90;999.90;;;;;;;13.67;72.47;99703.88;10399058;28;20053;-66
2024/04/01 14:43:26;;;;;;;1999.90;999.90;;;;;;;13.61;73.87;99709.66;10398674;28;20060;-66
2024/04/01 14:48:27;;;;;;;1999.90;999.90;;;;;;;13.68;73.36;99723.94;10413885;28;20045;-66
2024/04/01 14:53:30;;;;;;;1999.90;999.90;;;;;;;13.75;71.87;99711.88;10398010;28;20065;-66
2024/04/01 14:58:32;;;;;;;1999.90;999.90;;;;;;;13.89;72.82;99714.16;10413615;28;20413;-66
2024/04/01 15:03:34;;;;;;;1999.90;999.90;;;;;;;13.56;72.91;99717.94;10413812;28;20455;-66
2024/04/01 15:08:36;;;;;;;1999.90;999.90;;;;;;;13.72;71.85;99714.81;10413832;28;20042;-66
2024/04/01 15:13:42;;;;;;;1999.90;999.90;;;;;;;14.31;72.38;99715.72;10414085;28;20049;-66
2024/04/01 15:18:44;;;;;;;1999.90;999.90;;;;;;;14.60;72.32;99718.34;10413215;28;20045;-66
2024/04/01 15:23:46;;;;;;;1999.90;999.90;;;;;;;14.75;71.07;99721.38;10413799;28;20059;-66
2024/04/01 15:28:48;;;;;;;1999.90;999.90;;;;;;;14.88;70.76;99720.25;10413322;28;20050;-66
2024/04/01 15:33:50;;;;;;;1999.90;999.90;;;;;;;15.00;70.53;99727.84;10413142;28;20558;-66
2024/04/01 15:38:51;;;;;;;1999.90;999.90;;;;;;;14.59;71.57;99732.53;10413717;28;20107;-66
2024/04/01 15:43:57;;;;;;;1999.90;999.90;;;;;;;13.90;71.68;99739.50;10397203;28;20053;-67
2024/04/01 15:49:02;;;;;;;1999.90;999.90;;;;;;;15.77;65.59;99728.56;10396496;28;20057;-67
2024/04/01 15:54:03;;;;;;;1999.90;999.90;;;;;;;14.36;68.23;99739.84;10396225;28;20409;-67
2024/04/01 15:59:05;;;;;;;1999.90;999.90;;;;;;;14.10;69.66;99736.88;10416180;28;20053;-67
2024/04/01 16:04:07;;;;;;;1999.90;999.90;;;;;;;14.34;69.95;99743.56;10421199;28;20057;-67
2024/04/01 16:09:09;;;;;;;1999.90;999.90;;;;;;;14.10;69.54;99739.53;10354854;22;20070;-67
2024/04/01 16:14:17;;;;;;;1999.90;999.90;;;;;;;13.99;73.16;99742.28;10282697;28;20490;-67
2024/04/01 16:19:26;;;;;;;1999.90;999.90;;;;;;;13.91;70.28;99746.41;10282934;28;20063;-67
2024/04/01 16:24:31;;;;;;;1999.90;999.90;;;;;;;13.97;76.90;99750.31;10282624;28;20054;-67
2024/04/01 16:29:40;;;;;;;1999.90;999.90;;;;;;;13.63;78.26;99742.72;10281952;28;20055;-67
2024/04/01 16:34:44;;;;;;;1999.90;999.90;;;;;;;13.63;81.30;99749.78;10282927;28;20133;-67
2024/04/01 16:39:46;;;;;;;1999.90;999.90;;;;;;;13.32;85.26;99758.53;10282182;28;20062;-67
2024/04/01 16:44:47;;;;;;;1999.90;999.90;;;;;;;13.33;86.77;99754.94;10281940;28;20054;-67
2024/04/01 16:49:50;;;;;;;1999.90;999.90;;;;;;;13.20;90.20;99752.50;10281195;28;20050;-67
2024/04/01 16:54:52;;;;;;;1999.90;999.90;;;;;;;13.20;91.63;99754.31;10281072;28;20501;-67
2024/04/01 16:59:53;;;;;;;1999.90;999.90;;;;;;;13.05;93.55;99755.59;10297265;28;20058;-67
2024/04/01 17:04:55;;;;;;;1999.90;999.90;;;;;;;13.05;96.36;99750.34;10296977;28;20054;-67
2024/04/01 17:09:56;;;;;;;1999.90;999.90;;;;;;;12.96;95.35;99765.06;10295111;28;20047;-67
2024/04/01 17:14:57;;;;;;;1999.90;999.90;;;;;;;13.08;96.79;99758.81;10280174;28;20063;-65
2024/04/01 17:20:04;;;;;;;1999.90;999.90;;;;;;;12.89;96.88;99766.53;10264630;28;20066;-65
2024/04/01 17:25:09;;;;;;;1999.90;999.90;;;;;;;12.64;96.65;99764.19;10280539;28;20063;-65
2024/04/01 17:30:12;;;;;;;1999.90;999.90;;;;;;;12.67;99.30;99751.75;10279680;28;20062;-65
2024/04/01 17:35:13;;;;;;;1999.90;999.90;;;;;;;12.62;100.00;99760.84;10263163;28;20055;-65
2024/04/01 17:40:16;;;;;;;1999.90;999.90;;;;;;;12.47;100.00;99759.47;10278901;28;20089;-65
2024/04/01 17:45:18;;;;;;;1999.90;999.90;;;;;;;12.55;100.00;99770.16;10279694;28;20057;-65
2024/04/01 17:50:19;;;;;;;1999.90;999.90;;;;;;;12.61;99.87;99774.94;10279694;28;20059;-65
2024/04/01 17:55:21;;;;;;;1999.90;999.90;;;;;;;12.38;100.00;99775.97;10279015;28;20055;-67
2024/04/01 18:00:23;;;;;;;1999.90;999.90;;;;;;;12.15;100.00;99780.44;10294865;28;20066;-67
2024/04/01 18:05:25;;;;;;;1999.90;999.90;;;;;;;11.96;100.00;99781.09;10294330;28;20086;-67
2024/04/01 18:10:26;;;;;;;1999.90;999.90;;;;;;;11.91;100.00;99781.44;10293718;28;20490;-67
2024/04/01 18:15:31;;;;;;;1999.90;999.90;;;;;;;11.77;100.00;99790.38;10294523;28;20055;-67
2024/04/01 18:20:34;;;;;;;1999.90;999.90;;;;;;;11.66;100.00;99791.19;10293272;28;20486;-67
2024/04/01 18:25:35;;;;;;;1999.90;999.90;;;;;;;11.66;100.00;99806.09;10292519;28;20047;-67
2024/04/01 18:30:37;;;;;;;1999.90;999.90;;;;;;;11.59;100.00;99820.66;10293661;28;20066;-67
2024/04/01 18:35:39;;;;;;;1999.90;999.90;;;;;;;11.78;100.00;99820.88;10293868;28;20061;-67
2024/04/01 18:40:47;;;;;;;1999.90;999.90;;;;;;;11.67;100.00;99841.88;10277331;28;20078;-67
2024/04/01 18:45:49;;;;;;;1999.90;999.90;;;;;;;11.79;100.00;99846.16;10277481;28;20051;-67
2024/04/01 18:50:50;;;;;;;1999.90;999.90;;;;;;;11.70;99.74;99849.47;10277284;28;20062;-67
2024/04/01 18:55:52;;;;;;;1999.90;999.90;;;;;;;11.78;88.07;99859.38;10292414;28;20588;-67
2024/04/01 19:00:53;;;;;;;1999.90;999.90;;;;;;;11.75;84.17;99859.63;10276865;28;20061;-67
2024/04/01 19:05:55;;;;;;;1999.90;999.90;;;;;;;11.78;83.24;99868.06;10292770;28;20051;-67
2024/04/01 19:10:56;;;;;;;1999.90;999.90;;;;;;;11.69;80.13;99880.13;10291960;28;20054;-67
2024/04/01 19:15:58;;;;;;;1999.90;999.90;;;;;;;11.55;81.43;99884.75;10291828;28;20486;-67
2024/04/01 19:20:59;;;;;;;1999.90;999.90;;;;;;;11.31;79.74;99886.50;10276091;28;20183;-67
2024/04/01 19:26:00;;;;;;;1999.90;999.90;;;;;;;11.28;79.83;99896.34;10291318;28;20458;-67
2024/04/01 19:31:02;;;;;;;1999.90;999.90;;;;;;;11.27;81.37;99892.06;10291491;28;20061;-67
2024/04/01 19:36:04;;;;;;;1999.90;999.90;;;;;;;11.26;80.89;99898.25;10298109;28;20105;-67
2024/04/01 19:41:05;;;;;;;1999.90;999.90;;;;;;;11.13;80.32;99898.34;10315587;28;20391;-67
2024/04/01 19:46:08;;;;;;;1999.90;999.90;;;;;;;10.80;82.83;99897.25;10299327;28;20402;-67
2024/04/01 19:51:10;;;;;;;1999.90;999.90;;;;;;;10.90;84.28;99906.09;10283764;28;20051;-67
2024/04/01 19:56:11;;;;;;;1999.90;999.90;;;;;;;10.52;86.25;99914.09;10299059;28;20411;-67
2024/04/01 20:01:37;;;;;;;1999.90;999.90;;;;;;;10.45;86.76;99913.69;10283434;28;20065;-67
2024/04/01 20:06:38;;;;;;;1999.90;999.90;;;;;;;10.56;86.60;99912.94;10283052;28;20062;-67
2024/04/01 20:11:41;;;;;;;1999.90;999.90;;;;;;;10.20;88.82;99915.41;10298352;28;20066;-67
2024/04/01 20:16:43;;;;;;;1999.90;999.90;;;;;;;10.00;92.51;99929.00;10282597;28;20058;-67
2024/04/01 20:21:45;;;;;;;1999.90;999.90;;;;;;;9.73;93.17;99924.72;10282698;28;20057;-67
2024/04/01 20:26:47;;;;;;;1999.90;999.90;;;;;;;9.64;94.24;99925.34;10297888;28;20487;-67
2024/04/01 20:31:49;;;;;;;1999.90;999.90;;;;;;;9.28;98.15;99932.94;10298172;28;20059;-67
2024/04/01 20:36:54;;;;;;;1999.90;999.90;;;;;;;8.95;100.00;99935.94;10281312;28;20596;-67
2024/04/01 20:41:59;;;;;;;1999.90;999.90;;;;;;;8.96;100.00;99942.00;10281771;28;20065;-67
2024/04/01 20:47:01;;;;;;;1999.90;999.90;;;;;;;8.95;100.00;99933.34;10280460;28;20050;-67
2024/04/01 20:52:02;;;;;;;1999.90;999.90;;;;;;;8.99;100.00;99944.41;10281428;28;20062;-67
2024/04/01 20:57:04;;;;;;;1999.90;999.90;;;;;;;8.66;100.00;99928.22;10265246;28;20054;-67
2024/04/01 21:02:29;;;;;;;1999.90;999.90;;;;;;;8.59;100.00;99932.16;10265164;28;20061;-67
2024/04/01 21:07:31;;;;;;;1999.90;999.90;;;;;;;8.33;100.00;99942.38;10278425;28;20063;-67
2024/04/01 21:12:32;;;;;;;1999.90;999.90;;;;;;;8.36;100.00;99942.19;10296904;28;20051;-67
2024/04/01 21:17:33;;;;;;;1999.90;999.90;;;;;;;8.50;100.00;99945.75;10280220;28;20078;-67
2024/04/01 21:22:35;;;;;;;1999.90;999.90;;;;;;;8.25;100.00;99949.84;10296536;28;20055;-67
2024/04/01 21:27:37;;;;;;;1999.90;999.90;;;;;;;8.19;100.00;99958.06;10279924;28;20055;-67
2024/04/01 21:32:38;;;;;;;1999.90;999.90;;;;;;;8.28;100.00;99969.69;10296343;28;20065;-67
2024/04/01 21:37:40;;;;;;;1999.90;999.90;;;;;;;8.63;100.00;99969.31;10296013;28;20062;-66
2024/04/01 21:42:42;;;;;;;1999.90;999.90;;;;;;;8.81;100.00;99967.31;10279265;28;20516;-66
2024/04/01 21:47:45;;;;;;;1999.90;999.90;;;;;;;8.83;100.00;99962.84;10279210;28;20406;-66
2024/04/01 21:52:46;;;;;;;1999.90;999.90;;;;;;;8.74;100.00;99966.84;10294899;28;20387;-66
2024/04/01 21:57:48;;;;;;;1999.90;999.90;;;;;;;8.89;100.00;99978.97;10294584;28;20055;-66
2024/04/01 22:02:50;;;;;;;1999.90;999.90;;;;;;;8.98;100.00;99981.91;10294926;28;20056;-66
2024/04/01 22:07:51;;;;;;;1999.90;999.90;;;;;;;8.82;100.00;99984.66;10278392;28;20055;-66
2024/04/01 22:12:53;;;;;;;1999.90;999.90;;;;;;;8.44;100.00;99993.09;10262710;28;20062;-66
2024/04/01 22:17:54;;;;;;;1999.90;999.90;;;;;;;8.28;100.00;100001.00;10294435;28;20055;-66